createdAt,value
2016-08-09T00:00:17.994Z,24.21
2016-08-09T00:01:18.009Z,24.21
2016-08-09T00:02:18.005Z,24.19
2016-08-09T00:03:18.020Z,24.18
2016-08-09T00:04:18.016Z,24.15
2016-08-09T00:05:18.018Z,24.19
2016-08-09T00:06:18.026Z,24.19
2016-08-09T00:07:18.384Z,24.21
2016-08-09T00:08:18.464Z,24.15
2016-08-09T00:09:18.353Z,24.19
2016-08-09T00:10:19.135Z,24.21
2016-08-09T00:11:19.528Z,24.15
2016-08-09T00:12:18.396Z,24.14
2016-08-09T00:13:18.378Z,24.19
2016-08-09T00:14:19.087Z,24.21
2016-08-09T00:15:18.409Z,24.12
2016-08-09T00:16:18.415Z,24.12
2016-08-09T00:17:18.109Z,24.17
2016-08-09T00:18:18.102Z,24.15
2016-08-09T00:19:18.101Z,24.15
2016-08-09T00:20:18.108Z,24.24
2016-08-09T00:21:18.114Z,24.11
2016-08-09T00:22:18.114Z,24.18
2016-08-09T00:23:18.121Z,24.19
2016-08-09T00:24:18.124Z,24.14
2016-08-09T00:25:18.141Z,24.15
2016-08-09T00:26:18.141Z,24.19
2016-08-09T00:27:18.145Z,24.15
2016-08-09T00:28:18.150Z,24.08
2016-08-09T00:29:18.156Z,24.21
2016-08-09T00:30:18.170Z,24.18
2016-08-09T00:31:18.164Z,24.15
2016-08-09T00:32:18.171Z,24.11
2016-08-09T00:33:18.176Z,24.15
2016-08-09T00:34:18.190Z,24.15
2016-08-09T00:35:18.190Z,24.12
2016-08-09T00:36:18.197Z,24.08
2016-08-09T00:37:18.209Z,24.07
2016-08-09T00:38:18.204Z,24.14
2016-08-09T00:39:18.215Z,24.14
2016-08-09T00:40:18.214Z,24.21
2016-08-09T00:41:18.224Z,24.14
2016-08-09T00:42:18.227Z,24.11
2016-08-09T00:43:18.241Z,24.11
2016-08-09T00:44:18.254Z,24.08
2016-08-09T00:45:18.267Z,24.12
2016-08-09T00:46:18.254Z,24.17
2016-08-09T00:47:18.259Z,24.17
2016-08-09T00:48:18.260Z,24.21
2016-08-09T00:49:18.267Z,24.11
2016-08-09T00:50:18.275Z,24.19
2016-08-09T00:51:18.283Z,24.14
2016-08-09T00:52:18.284Z,24.18
2016-08-09T00:53:18.299Z,24.15
2016-08-09T00:54:18.299Z,24.14
2016-08-09T00:55:18.315Z,24.19
2016-08-09T00:56:18.307Z,24.18
2016-08-09T00:57:18.312Z,24.18
2016-08-09T00:58:18.321Z,24.08
2016-08-09T00:59:18.323Z,24.12
2016-08-09T01:00:18.330Z,24.08
2016-08-09T01:01:18.335Z,24.08
2016-08-09T01:03:18.348Z,24.18
2016-08-09T01:04:18.355Z,24.14
2016-08-09T01:05:18.357Z,24.15
2016-08-09T01:06:18.365Z,24.15
2016-08-09T01:07:18.370Z,24.15
2016-08-09T01:08:18.373Z,24.12
2016-08-09T01:09:18.380Z,24.15
2016-08-09T01:10:18.385Z,24.11
2016-08-09T01:11:18.391Z,24.15
2016-08-09T01:12:18.399Z,24.15
2016-08-09T01:13:18.398Z,24.12
2016-08-09T01:14:18.436Z,24.12
2016-08-09T01:15:18.415Z,24.12
2016-08-09T01:16:18.417Z,24.15
2016-08-09T01:18:18.439Z,24.15
2016-08-09T01:19:18.445Z,24.21
2016-08-09T01:20:18.442Z,24.11
2016-08-09T01:21:18.447Z,24.11
2016-08-09T01:22:18.454Z,24.12
2016-08-09T01:23:18.459Z,24.07
2016-08-09T01:24:18.468Z,24.19
2016-08-09T01:25:18.471Z,24.07
2016-08-09T01:26:18.481Z,24.07
2016-08-09T01:27:18.480Z,24.14
2016-08-09T01:28:18.488Z,24.18
2016-08-09T01:29:18.497Z,24.09
2016-08-09T01:30:18.512Z,24.15
2016-08-09T01:31:18.512Z,24.15
2016-08-09T01:33:18.513Z,24.12
2016-08-09T01:34:18.521Z,24.08
2016-08-09T01:35:18.530Z,24.14
2016-08-09T01:36:18.530Z,24.09
2016-08-09T01:37:18.540Z,24.14
2016-08-09T01:38:18.541Z,24.15
2016-08-09T01:39:18.543Z,24.14
2016-08-09T01:40:18.559Z,24.14
2016-08-09T01:41:18.563Z,24.12
2016-08-09T01:42:18.564Z,24.11
2016-08-09T01:43:18.575Z,24.09
2016-08-09T01:44:18.577Z,24.09
2016-08-09T01:45:18.578Z,24.09
2016-08-09T01:46:18.634Z,24.09
2016-08-09T01:48:18.594Z,24.11
2016-08-09T01:49:18.605Z,24.14
2016-08-09T01:50:18.609Z,24.07
2016-08-09T01:51:18.615Z,24.07
2016-08-09T01:52:18.620Z,24.14
2016-08-09T01:53:18.625Z,24.08
2016-08-09T01:54:18.637Z,24.07
2016-08-09T01:55:18.631Z,24.09
2016-08-09T01:56:18.642Z,24.09
2016-08-09T01:57:18.651Z,24.14
2016-08-09T01:58:18.649Z,24.03
2016-08-09T01:59:18.658Z,24.07
2016-08-09T02:00:18.667Z,24.07
2016-08-09T02:01:18.668Z,24.09
2016-08-09T02:03:18.680Z,24.04
2016-08-09T02:04:18.685Z,24.12
2016-08-09T02:05:18.690Z,24.11
2016-08-09T02:06:18.695Z,24.08
2016-08-09T02:07:18.710Z,24.04
2016-08-09T02:08:18.715Z,24.11
2016-08-09T02:09:18.714Z,24.17
2016-08-09T02:10:18.736Z,24.07
2016-08-09T02:11:18.749Z,24.03
2016-08-09T02:12:18.736Z,24.12
2016-08-09T02:13:18.737Z,24.12
2016-08-09T02:14:18.745Z,24.09
2016-08-09T02:15:18.760Z,24.07
2016-08-09T02:16:18.756Z,24.07
2016-08-09T02:17:18.758Z,24.03
2016-08-09T02:18:18.764Z,24.08
2016-08-09T02:19:18.777Z,24.09
2016-08-09T02:20:18.772Z,24.11
2016-08-09T02:21:18.781Z,24.09
2016-08-09T02:22:18.788Z,24.02
2016-08-09T02:23:18.799Z,24.07
2016-08-09T02:24:18.798Z,24.04
2016-08-09T02:25:18.809Z,24.08
2016-08-09T02:26:18.806Z,24.08
2016-08-09T02:27:18.823Z,24.11
2016-08-09T02:28:18.821Z,24.09
2016-08-09T02:29:18.831Z,24.04
2016-08-09T02:30:18.829Z,24.11
2016-08-09T02:31:18.834Z,24.04
2016-08-09T02:32:18.846Z,24.03
2016-08-09T02:33:18.850Z,24.04
2016-08-09T02:34:18.852Z,24.07
2016-08-09T02:35:18.856Z,24.07
2016-08-09T02:36:18.875Z,24.07
2016-08-09T02:37:18.878Z,24.07
2016-08-09T02:38:18.874Z,24.08
2016-08-09T02:39:18.887Z,24.04
2016-08-09T02:40:18.885Z,24.08
2016-08-09T02:41:18.892Z,24.07
2016-08-09T02:42:18.900Z,24.09
2016-08-09T02:43:18.905Z,24.08
2016-08-09T02:44:18.908Z,24.09
2016-08-09T02:45:18.918Z,24.03
2016-08-09T02:46:18.967Z,24.04
2016-08-09T02:47:19.175Z,24.07
2016-08-09T02:48:18.932Z,24.09
2016-08-09T02:49:18.944Z,24.11
2016-08-09T02:50:18.940Z,24.09
2016-08-09T02:51:18.950Z,24.12
2016-08-09T02:52:20.119Z,24.09
2016-08-09T02:53:18.956Z,24
2016-08-09T02:54:18.972Z,24
2016-08-09T02:55:18.969Z,24.11
2016-08-09T02:56:18.975Z,24.03
2016-08-09T02:57:18.980Z,24.09
2016-08-09T02:58:18.989Z,24
2016-08-09T02:59:18.991Z,24.04
2016-08-09T03:00:18.994Z,24.12
2016-08-09T03:01:19.006Z,24
2016-08-09T03:02:19.020Z,24.03
2016-08-09T03:03:19.012Z,24.09
2016-08-09T03:04:19.023Z,24.11
2016-08-09T03:05:19.026Z,24.08
2016-08-09T03:06:19.030Z,24.03
2016-08-09T03:07:19.049Z,24.09
2016-08-09T03:08:19.044Z,24.07
2016-08-09T03:09:19.049Z,24.03
2016-08-09T03:10:19.054Z,24.02
2016-08-09T03:11:19.058Z,24.09
2016-08-09T03:12:19.065Z,24.04
2016-08-09T03:13:19.071Z,24.02
2016-08-09T03:14:19.082Z,24.12
2016-08-09T03:15:19.080Z,24.09
2016-08-09T03:16:19.083Z,23.99
2016-08-09T03:17:19.093Z,24.07
2016-08-09T03:18:19.095Z,24.04
2016-08-09T03:19:19.101Z,24.08
2016-08-09T03:20:19.114Z,24.04
2016-08-09T03:21:19.114Z,24.03
2016-08-09T03:22:19.124Z,24
2016-08-09T03:23:19.124Z,24.07
2016-08-09T03:24:19.132Z,23.99
2016-08-09T03:25:19.133Z,24.04
2016-08-09T03:26:19.140Z,24
2016-08-09T03:27:19.146Z,24.09
2016-08-09T03:28:19.151Z,24.07
2016-08-09T03:29:19.157Z,24.04
2016-08-09T03:30:19.165Z,24.09
2016-08-09T03:31:19.169Z,24
2016-08-09T03:32:19.171Z,24
2016-08-09T03:33:19.180Z,24.02
2016-08-09T03:34:19.192Z,23.99
2016-08-09T03:35:19.190Z,24
2016-08-09T03:36:19.202Z,24
2016-08-09T03:37:19.198Z,24.08
2016-08-09T03:38:19.206Z,23.96
2016-08-09T03:39:19.222Z,24.04
2016-08-09T03:40:19.231Z,24.09
2016-08-09T03:41:19.236Z,24.08
2016-08-09T03:42:19.227Z,24
2016-08-09T03:43:19.233Z,24.02
2016-08-09T03:44:19.236Z,24
2016-08-09T03:45:19.248Z,24.07
2016-08-09T03:46:19.304Z,24.12
2016-08-09T03:47:19.265Z,24.02
2016-08-09T03:48:19.274Z,24.03
2016-08-09T03:49:19.268Z,24.02
2016-08-09T03:50:19.273Z,24
2016-08-09T03:51:19.279Z,24.03
2016-08-09T03:52:19.285Z,24.04
2016-08-09T03:53:19.294Z,23.99
2016-08-09T03:54:19.302Z,23.97
2016-08-09T03:55:19.315Z,24.02
2016-08-09T03:56:19.309Z,24.08
2016-08-09T03:57:19.313Z,24
2016-08-09T03:58:19.320Z,23.99
2016-08-09T03:59:19.321Z,24
2016-08-09T04:00:19.325Z,23.99
2016-08-09T04:01:19.337Z,24.03
2016-08-09T04:02:19.341Z,24.03
2016-08-09T04:03:19.352Z,24.04
2016-08-09T04:04:19.355Z,24.02
2016-08-09T04:05:19.360Z,24
2016-08-09T04:06:19.360Z,23.99
2016-08-09T04:07:19.368Z,24.03
2016-08-09T04:08:19.379Z,24.03
2016-08-09T04:09:19.382Z,23.94
2016-08-09T04:10:19.386Z,24.02
2016-08-09T04:11:19.390Z,24.03
2016-08-09T04:12:19.393Z,24.02
2016-08-09T04:13:19.419Z,24.02
2016-08-09T04:14:19.408Z,24.03
2016-08-09T04:15:19.415Z,24
2016-08-09T04:16:19.415Z,23.96
2016-08-09T04:17:19.421Z,24.02
2016-08-09T04:18:19.431Z,23.99
2016-08-09T04:19:19.453Z,23.99
2016-08-09T04:20:19.437Z,24.04
2016-08-09T04:21:19.447Z,23.94
2016-08-09T04:22:19.447Z,24
2016-08-09T04:23:19.458Z,24.02
2016-08-09T04:24:19.458Z,24
2016-08-09T04:25:19.480Z,24.03
2016-08-09T04:26:19.471Z,24.03
2016-08-09T04:27:19.477Z,24.04
2016-08-09T04:28:19.504Z,24.03
2016-08-09T04:29:19.490Z,23.96
2016-08-09T04:30:19.509Z,24.03
2016-08-09T04:31:19.499Z,23.94
2016-08-09T04:32:19.502Z,24.03
2016-08-09T04:33:19.508Z,24.02
2016-08-09T04:34:19.512Z,24.02
2016-08-09T04:35:19.526Z,23.93
2016-08-09T04:36:19.530Z,23.97
2016-08-09T04:37:19.534Z,23.93
2016-08-09T04:38:19.536Z,23.99
2016-08-09T04:39:19.559Z,23.97
2016-08-09T04:40:19.551Z,23.94
2016-08-09T04:41:19.552Z,23.97
2016-08-09T04:42:19.559Z,23.96
2016-08-09T04:43:19.567Z,23.99
2016-08-09T04:44:19.584Z,24
2016-08-09T04:45:19.575Z,24.02
2016-08-09T04:46:19.584Z,24.02
2016-08-09T04:47:19.587Z,23.96
2016-08-09T04:48:19.594Z,23.96
2016-08-09T04:49:19.609Z,23.93
2016-08-09T04:50:20.644Z,23.94
2016-08-09T04:51:19.615Z,23.92
2016-08-09T04:52:19.631Z,23.93
2016-08-09T04:53:19.621Z,23.99
2016-08-09T04:54:19.627Z,24
2016-08-09T04:55:19.665Z,23.97
2016-08-09T04:56:19.640Z,24
2016-08-09T04:57:19.648Z,23.99
2016-08-09T04:58:19.651Z,24
2016-08-09T04:59:19.658Z,23.93
2016-08-09T05:00:19.664Z,23.93
2016-08-09T05:01:19.664Z,23.97
2016-08-09T05:02:19.671Z,23.97
2016-08-09T05:03:19.672Z,24
2016-08-09T05:04:19.681Z,24
2016-08-09T05:05:19.691Z,23.92
2016-08-09T05:06:19.693Z,23.99
2016-08-09T05:07:19.694Z,23.92
2016-08-09T05:08:19.730Z,23.92
2016-08-09T05:09:19.705Z,23.92
2016-08-09T05:10:19.871Z,23.92
2016-08-09T05:11:19.717Z,23.97
2016-08-09T05:12:19.720Z,23.94
2016-08-09T05:13:19.728Z,23.96
2016-08-09T05:14:19.734Z,23.92
2016-08-09T05:15:19.742Z,23.9
2016-08-09T05:16:19.746Z,23.94
2016-08-09T05:17:19.751Z,23.92
2016-08-09T05:18:19.763Z,23.93
2016-08-09T05:19:19.770Z,23.97
2016-08-09T05:20:19.767Z,23.92
2016-08-09T05:21:19.772Z,23.93
2016-08-09T05:22:19.987Z,23.89
2016-08-09T05:23:19.784Z,23.94
2016-08-09T05:24:19.789Z,24
2016-08-09T05:25:19.802Z,23.97
2016-08-09T05:26:19.801Z,23.89
2016-08-09T05:27:20.779Z,23.96
2016-08-09T05:28:19.947Z,23.92
2016-08-09T05:29:19.816Z,23.97
2016-08-09T05:30:19.821Z,23.96
2016-08-09T05:31:19.923Z,23.93
2016-08-09T05:32:19.836Z,23.96
2016-08-09T05:33:19.840Z,23.99
2016-08-09T05:34:19.848Z,23.89
2016-08-09T05:35:19.848Z,23.93
2016-08-09T05:36:19.859Z,23.94
2016-08-09T05:37:20.891Z,23.92
2016-08-09T05:38:19.872Z,23.92
2016-08-09T05:39:19.873Z,23.94
2016-08-09T05:40:19.878Z,23.97
2016-08-09T05:41:19.886Z,23.93
2016-08-09T05:42:19.892Z,24.03
2016-08-09T05:43:19.894Z,23.94
2016-08-09T05:44:19.937Z,23.99
2016-08-09T05:45:19.952Z,23.96
2016-08-09T05:46:19.911Z,24.02
2016-08-09T05:47:19.917Z,23.89
2016-08-09T05:48:19.921Z,23.93
2016-08-09T05:49:19.933Z,23.97
2016-08-09T05:50:19.936Z,23.93
2016-08-09T05:51:21.745Z,23.97
2016-08-09T05:52:19.944Z,24.02
2016-08-09T05:53:19.947Z,23.93
2016-08-09T05:54:20.018Z,23.96
2016-08-09T05:55:19.964Z,23.97
2016-08-09T05:56:19.966Z,23.89
2016-08-09T05:57:20.379Z,23.94
2016-08-09T05:58:20.101Z,23.96
2016-08-09T05:59:20.116Z,23.93
2016-08-09T06:00:20.380Z,23.92
2016-08-09T06:01:20.376Z,23.99
2016-08-09T06:02:20.395Z,23.93
2016-08-09T06:04:21.246Z,23.94
2016-08-09T06:05:21.411Z,23.94
2016-08-09T06:06:21.526Z,23.96
2016-08-09T06:07:23.619Z,23.93
2016-08-09T06:08:20.054Z,24
2016-08-09T06:09:20.158Z,24
2016-08-09T06:10:20.172Z,24
2016-08-09T06:11:20.167Z,23.93
2016-08-09T06:12:20.130Z,23.94
2016-08-09T06:13:22.294Z,23.96
2016-08-09T06:14:22.491Z,23.97
2016-08-09T06:15:20.459Z,24.03
2016-08-09T06:16:23.240Z,24.08
2016-08-09T06:17:20.668Z,24
2016-08-09T06:19:24.637Z,24
2016-08-09T06:19:40.049Z,24.15
2016-08-09T06:20:39.527Z,24.07
2016-08-09T06:21:38.424Z,24
2016-08-09T06:22:39.379Z,24.02
2016-08-09T06:23:37.986Z,24
2016-08-09T06:24:37.878Z,24.09
2016-08-09T06:25:39.783Z,24.03
2016-08-09T06:26:38.052Z,23.99
2016-08-09T06:27:37.767Z,24.04
2016-08-09T06:28:38.671Z,23.99
2016-08-09T06:29:38.013Z,24.03
2016-08-09T06:30:40.048Z,24.09
2016-08-09T06:31:38.126Z,24.11
2016-08-09T06:32:37.253Z,23.97
2016-08-09T06:33:36.952Z,24.11
2016-08-09T06:34:39.405Z,24.09
2016-08-09T06:35:38.183Z,24.04
2016-08-09T06:36:39.277Z,24.02
2016-08-09T06:37:37.253Z,24.09
2016-08-09T06:38:39.541Z,24.11
2016-08-09T06:39:36.876Z,24.14
2016-08-09T06:40:39.740Z,24.07
2016-08-09T06:41:36.874Z,24.12
2016-08-09T06:42:39.040Z,24.11
2016-08-09T06:43:38.150Z,24.07
2016-08-09T06:44:37.943Z,24.03
2016-08-09T06:45:39.767Z,24.08
2016-08-09T06:46:38.446Z,24.04
2016-08-09T06:47:41.575Z,24.14
2016-08-09T06:48:39.193Z,24.08
2016-08-09T06:52:39.997Z,24.14
2016-08-09T06:53:39.736Z,24.18
2016-08-09T06:54:39.596Z,24.18
2016-08-09T06:55:38.041Z,24.12
2016-08-09T06:56:37.949Z,24.09
2016-08-09T06:57:38.225Z,24.19
2016-08-09T06:58:38.576Z,24.15
2016-08-09T06:59:40.773Z,24.17
2016-08-09T07:00:39.929Z,24.21
2016-08-09T07:01:38.088Z,24.19
2016-08-09T07:02:37.610Z,24.21
2016-08-09T07:03:38.517Z,24.22
2016-08-09T07:04:38.231Z,24.17
2016-08-09T07:05:38.267Z,24.12
2016-08-09T07:06:39.681Z,24.17
2016-08-09T07:07:37.150Z,24.19
2016-08-09T07:08:37.918Z,24.21
2016-08-09T07:09:39.623Z,24.21
2016-08-09T07:10:39.829Z,24.19
2016-08-09T07:11:41.176Z,24.19
2016-08-09T07:12:39.947Z,24.24
2016-08-09T07:13:39.896Z,24.3
2016-08-09T07:14:40.462Z,24.26
2016-08-09T07:16:42.538Z,24.27
2016-08-09T07:16:56.267Z,24.21
2016-08-09T07:17:56.760Z,24.26
2016-08-09T07:19:03.229Z,24.22
2016-08-09T07:19:55.644Z,24.24
2016-08-09T07:20:54.672Z,24.22
2016-08-09T07:21:54.556Z,24.26
2016-08-09T07:22:54.441Z,24.26
2016-08-09T07:23:56.906Z,24.21
2016-08-09T07:24:54.452Z,24.26
2016-08-09T07:25:54.294Z,24.32
2016-08-09T07:26:55.555Z,24.22
2016-08-09T07:27:58.107Z,24.26
2016-08-09T07:28:55.565Z,24.27
2016-08-09T07:29:56.057Z,24.32
2016-08-09T07:30:54.332Z,24.26
2016-08-09T07:31:54.428Z,24.32
2016-08-09T07:32:54.368Z,24.34
2016-08-09T07:33:54.489Z,24.37
2016-08-09T07:34:54.361Z,24.33
2016-08-09T07:35:55.528Z,24.44
2016-08-09T07:36:54.358Z,24.33
2016-08-09T07:37:54.620Z,24.37
2016-08-09T07:38:54.379Z,24.44
2016-08-09T07:39:55.342Z,24.42
2016-08-09T07:40:55.370Z,24.54
2016-08-09T07:41:54.390Z,24.44
2016-08-09T07:42:54.393Z,24.44
2016-08-09T07:43:54.408Z,24.46
2016-08-09T07:44:54.412Z,24.58
2016-08-09T07:45:57.758Z,24.59
2016-08-09T07:46:54.518Z,24.56
2016-08-09T07:47:57.769Z,24.59
2016-08-09T07:48:54.436Z,24.63
2016-08-09T07:49:54.436Z,24.67
2016-08-09T07:50:54.442Z,24.66
2016-08-09T07:51:55.729Z,24.75
2016-08-09T07:52:54.470Z,24.71
2016-08-09T07:53:55.485Z,24.77
2016-08-09T07:54:54.469Z,24.74
2016-08-09T07:55:54.562Z,24.74
2016-08-09T07:56:54.476Z,24.71
2016-08-09T07:57:54.485Z,24.67
2016-08-09T07:58:54.858Z,24.77
2016-08-09T07:59:54.499Z,24.75
2016-08-09T08:00:54.520Z,24.78
2016-08-09T08:01:55.997Z,24.75
2016-08-09T08:02:54.515Z,24.78
2016-08-09T08:03:54.661Z,24.78
2016-08-09T08:04:54.525Z,24.78
2016-08-09T08:05:56.425Z,24.83
2016-08-09T08:06:54.537Z,24.78
2016-08-09T08:07:54.740Z,24.78
2016-08-09T08:08:56.025Z,24.77
2016-08-09T08:09:55.108Z,24.8
2016-08-09T08:10:55.001Z,24.8
2016-08-09T08:11:55.853Z,24.75
2016-08-09T08:12:56.016Z,24.75
2016-08-09T08:13:54.602Z,24.74
2016-08-09T08:14:54.591Z,24.7
2016-08-09T08:15:54.603Z,24.74
2016-08-09T08:16:54.604Z,24.69
2016-08-09T08:17:54.781Z,24.64
2016-08-09T08:18:54.874Z,24.71
2016-08-09T08:19:54.702Z,24.7
2016-08-09T08:20:54.874Z,24.7
2016-08-09T08:21:55.826Z,24.67
2016-08-09T08:22:55.885Z,24.66
2016-08-09T08:23:54.653Z,24.66
2016-08-09T08:24:54.647Z,24.66
2016-08-09T08:25:54.649Z,24.64
2016-08-09T08:26:54.732Z,24.64
2016-08-09T08:27:54.694Z,24.61
2016-08-09T08:28:54.704Z,24.56
2016-08-09T08:29:55.730Z,24.59
2016-08-09T08:30:54.680Z,24.61
2016-08-09T08:31:54.685Z,24.58
2016-08-09T08:32:54.693Z,24.61
2016-08-09T08:33:54.695Z,24.56
2016-08-09T08:34:54.721Z,24.58
2016-08-09T08:35:54.733Z,24.54
2016-08-09T08:36:55.476Z,24.58
2016-08-09T08:37:55.892Z,24.56
2016-08-09T08:38:54.738Z,24.55
2016-08-09T08:39:54.731Z,24.61
2016-08-09T08:40:54.768Z,24.63
2016-08-09T08:41:54.757Z,24.54
2016-08-09T08:42:54.750Z,24.63
2016-08-09T08:43:54.762Z,24.48
2016-08-09T08:44:54.770Z,24.63
2016-08-09T08:45:54.766Z,24.63
2016-08-09T08:46:54.824Z,24.58
2016-08-09T08:47:54.823Z,24.56
2016-08-09T08:48:54.785Z,24.51
2016-08-09T08:49:55.627Z,24.48
2016-08-09T08:50:54.801Z,24.58
2016-08-09T08:51:54.809Z,24.56
2016-08-09T08:52:57.675Z,24.45
2016-08-09T08:53:54.814Z,24.49
2016-08-09T08:54:54.831Z,24.48
2016-08-09T08:55:54.826Z,24.54
2016-08-09T08:56:54.835Z,24.56
2016-08-09T08:57:54.835Z,24.42
2016-08-09T08:58:57.637Z,24.4
2016-08-09T08:59:54.855Z,24.48
2016-08-09T09:00:54.859Z,24.55
2016-08-09T09:01:54.860Z,24.48
2016-08-09T09:02:57.693Z,24.42
2016-08-09T09:03:57.305Z,24.46
2016-08-09T09:04:54.879Z,24.42
2016-08-09T09:05:54.884Z,24.45
2016-08-09T09:06:56.228Z,24.45
2016-08-09T09:07:57.676Z,24.48
2016-08-09T09:08:55.169Z,24.48
2016-08-09T09:09:57.361Z,24.48
2016-08-09T09:10:55.975Z,24.55
2016-08-09T09:11:55.875Z,24.42
2016-08-09T09:12:55.235Z,24.44
2016-08-09T09:13:54.972Z,24.54
2016-08-09T09:14:55.762Z,24.55
2016-08-09T09:15:55.342Z,24.59
2016-08-09T09:16:55.710Z,24.58
2016-08-09T09:17:55.328Z,24.48
2016-08-09T09:18:57.816Z,24.54
2016-08-09T09:19:57.370Z,24.56
2016-08-09T09:20:56.207Z,24.63
2016-08-09T09:21:55.293Z,24.54
2016-08-09T09:22:55.236Z,24.54
2016-08-09T09:23:54.995Z,24.54
2016-08-09T09:24:55.000Z,24.58
2016-08-09T09:25:54.998Z,24.54
2016-08-09T09:26:55.009Z,24.59
2016-08-09T09:27:55.013Z,24.58
2016-08-09T09:28:55.025Z,24.61
2016-08-09T09:29:55.024Z,24.58
2016-08-09T09:30:55.366Z,24.58
2016-08-09T09:31:55.035Z,24.56
2016-08-09T09:32:55.041Z,24.63
2016-08-09T09:34:55.051Z,24.59
2016-08-09T09:35:56.014Z,24.61
2016-08-09T09:36:55.108Z,24.56
2016-08-09T09:37:55.071Z,24.61
2016-08-09T09:38:55.129Z,24.48
2016-08-09T09:39:55.079Z,24.55
2016-08-09T09:40:55.093Z,24.55
2016-08-09T09:41:55.099Z,24.44
2016-08-09T09:42:55.111Z,24.58
2016-08-09T09:43:55.108Z,24.55
2016-08-09T09:44:55.119Z,24.58
2016-08-09T09:45:55.119Z,24.45
2016-08-09T09:46:55.173Z,24.58
2016-08-09T09:47:55.126Z,24.46
2016-08-09T09:49:55.138Z,24.54
2016-08-09T09:50:55.147Z,24.58
2016-08-09T09:51:55.147Z,24.54
2016-08-09T09:52:55.155Z,24.58
2016-08-09T09:53:55.606Z,24.56
2016-08-09T09:54:55.167Z,24.63
2016-08-09T09:55:55.175Z,24.46
2016-08-09T09:56:55.180Z,24.55
2016-08-09T09:57:55.332Z,24.56
2016-08-09T09:58:55.197Z,24.55
2016-08-09T09:59:55.196Z,24.54
2016-08-09T10:00:55.208Z,24.46
2016-08-09T10:01:55.228Z,24.48
2016-08-09T10:02:55.215Z,24.58
2016-08-09T10:03:55.219Z,24.56
2016-08-09T10:04:55.224Z,24.54
2016-08-09T10:05:55.230Z,24.58
2016-08-09T10:06:55.239Z,24.51
2016-08-09T10:07:55.250Z,24.46
2016-08-09T10:08:55.248Z,24.45
2016-08-09T10:09:55.254Z,24.45
2016-08-09T10:10:55.263Z,24.59
2016-08-09T10:11:56.327Z,24.45
2016-08-09T10:12:55.508Z,24.54
2016-08-09T10:13:55.278Z,24.45
2016-08-09T10:14:55.285Z,24.49
2016-08-09T10:15:55.285Z,24.46
2016-08-09T10:16:55.310Z,24.46
2016-08-09T10:17:55.339Z,24.44
2016-08-09T10:18:55.624Z,24.49
2016-08-09T10:19:55.321Z,24.51
2016-08-09T10:20:55.331Z,24.44
2016-08-09T10:21:55.390Z,24.56
2016-08-09T10:22:55.350Z,24.45
2016-08-09T10:23:55.347Z,24.44
2016-08-09T10:24:56.341Z,24.54
2016-08-09T10:25:55.348Z,24.55
2016-08-09T10:26:55.355Z,24.48
2016-08-09T10:27:55.363Z,24.46
2016-08-09T10:28:55.371Z,24.49
2016-08-09T10:29:55.370Z,24.48
2016-08-09T10:30:55.377Z,24.56
2016-08-09T10:31:55.383Z,24.48
2016-08-09T10:32:55.385Z,24.51
2016-08-09T10:33:55.395Z,24.49
2016-08-09T10:34:55.409Z,24.48
2016-08-09T10:35:55.408Z,24.48
2016-08-09T10:36:55.412Z,24.48
2016-08-09T10:37:55.658Z,24.46
2016-08-09T10:38:57.613Z,24.44
2016-08-09T10:39:57.660Z,24.45
2016-08-09T10:40:57.672Z,24.44
2016-08-09T10:41:56.582Z,24.45
2016-08-09T10:42:56.410Z,24.48
2016-08-09T10:43:56.025Z,24.48
2016-08-09T10:44:58.745Z,24.49
2016-08-09T10:45:58.341Z,24.44
2016-08-09T10:46:58.157Z,24.44
2016-08-09T10:47:57.356Z,24.51
2016-08-09T10:48:58.380Z,24.45
2016-08-09T10:49:57.551Z,24.45
2016-08-09T10:50:59.172Z,24.42
2016-08-09T10:51:58.596Z,24.49
2016-08-09T10:52:56.008Z,24.48
2016-08-09T10:53:58.009Z,24.49
2016-08-09T10:54:56.018Z,24.46
2016-08-09T10:55:59.053Z,24.51
2016-08-09T10:56:57.295Z,24.48
2016-08-09T10:58:01.825Z,24.45
2016-08-09T10:58:57.187Z,24.49
2016-08-09T11:00:29.796Z,24.44
2016-08-09T11:00:57.256Z,24.48
2016-08-09T11:01:56.355Z,24.48
2016-08-09T11:02:56.376Z,24.45
2016-08-09T11:03:55.853Z,24.45
2016-08-09T11:04:56.910Z,24.54
2016-08-09T11:05:58.305Z,24.42
2016-08-09T11:06:57.049Z,24.55
2016-08-09T11:07:55.718Z,24.54
2016-08-09T11:08:57.198Z,24.45
2016-08-09T11:09:57.095Z,24.42
2016-08-09T11:10:58.025Z,24.42
2016-08-09T11:11:55.622Z,24.51
2016-08-09T11:12:55.616Z,24.45
2016-08-09T11:13:55.626Z,24.48
2016-08-09T11:14:55.647Z,24.51
2016-08-09T11:15:55.634Z,24.42
2016-08-09T11:16:55.642Z,24.46
2016-08-09T11:17:55.647Z,24.49
2016-08-09T11:18:55.658Z,24.42
2016-08-09T11:19:55.658Z,24.56
2016-08-09T11:20:55.665Z,24.46
2016-08-09T11:21:55.672Z,24.42
2016-08-09T11:22:55.677Z,24.55
2016-08-09T11:23:55.684Z,24.46
2016-08-09T11:24:55.688Z,24.49
2016-08-09T11:25:55.697Z,24.49
2016-08-09T11:26:55.700Z,24.46
2016-08-09T11:27:55.707Z,24.49
2016-08-09T11:28:55.709Z,24.48
2016-08-09T11:29:55.732Z,24.44
2016-08-09T11:30:55.724Z,24.49
2016-08-09T11:31:55.729Z,24.44
2016-08-09T11:32:55.742Z,24.45
2016-08-09T11:33:55.741Z,24.48
2016-08-09T11:34:55.754Z,24.49
2016-08-09T11:35:55.750Z,24.46
2016-08-09T11:36:55.762Z,24.44
2016-08-09T11:37:55.766Z,24.46
2016-08-09T11:38:55.769Z,24.48
2016-08-09T11:39:55.781Z,24.49
2016-08-09T11:40:55.781Z,24.44
2016-08-09T11:41:55.789Z,24.44
2016-08-09T11:42:55.793Z,24.51
2016-08-09T11:43:55.798Z,24.46
2016-08-09T11:44:55.807Z,24.49
2016-08-09T11:45:55.808Z,24.44
2016-08-09T11:46:55.815Z,24.42
2016-08-09T11:47:55.823Z,24.56
2016-08-09T11:48:55.829Z,24.48
2016-08-09T11:49:55.829Z,24.49
2016-08-09T11:50:55.836Z,24.51
2016-08-09T11:51:56.851Z,24.44
2016-08-09T11:52:55.865Z,24.56
2016-08-09T11:53:55.856Z,24.54
2016-08-09T11:54:55.867Z,24.51
2016-08-09T11:55:55.875Z,24.48
2016-08-09T11:56:55.872Z,24.54
2016-08-09T11:57:56.858Z,24.48
2016-08-09T11:58:55.885Z,24.48
2016-08-09T11:59:55.889Z,24.51
2016-08-09T12:00:55.896Z,24.55
2016-08-09T12:01:55.905Z,24.48
2016-08-09T12:02:55.905Z,24.45
2016-08-09T12:03:55.934Z,24.54
2016-08-09T12:04:55.918Z,24.56
2016-08-09T12:05:55.939Z,24.54
2016-08-09T12:06:55.931Z,24.49
2016-08-09T12:07:55.938Z,24.54
2016-08-09T12:08:55.949Z,24.44
2016-08-09T12:09:55.961Z,24.44
2016-08-09T12:10:55.959Z,24.55
2016-08-09T12:11:55.960Z,24.54
2016-08-09T12:12:57.262Z,24.44
2016-08-09T12:13:55.971Z,24.48
2016-08-09T12:14:55.981Z,24.42
2016-08-09T12:15:55.982Z,24.58
2016-08-09T12:16:55.995Z,24.46
2016-08-09T12:17:55.997Z,24.58
2016-08-09T12:18:56.003Z,24.59
2016-08-09T12:19:56.010Z,24.51
2016-08-09T12:20:56.015Z,24.48
2016-08-09T12:21:56.038Z,24.48
2016-08-09T12:22:56.023Z,24.56
2016-08-09T12:23:56.028Z,24.48
2016-08-09T12:24:56.048Z,24.54
2016-08-09T12:25:56.040Z,24.49
2016-08-09T12:26:56.046Z,24.51
2016-08-09T12:27:56.053Z,24.48
2016-08-09T12:28:56.059Z,24.52
2016-08-09T12:29:56.064Z,24.51
2016-08-09T12:30:56.070Z,24.48
2016-08-09T12:31:56.075Z,24.44
2016-08-09T12:32:56.081Z,24.44
2016-08-09T12:33:56.088Z,24.46
2016-08-09T12:34:56.091Z,24.46
2016-08-09T12:35:56.104Z,24.42
2016-08-09T12:36:56.103Z,24.46
2016-08-09T12:37:56.111Z,24.46
2016-08-09T12:38:56.117Z,24.45
2016-08-09T12:39:56.121Z,24.48
2016-08-09T12:40:56.125Z,24.45
2016-08-09T12:41:56.138Z,24.45
2016-08-09T12:42:56.147Z,24.45
2016-08-09T12:43:56.163Z,24.42
2016-08-09T12:44:56.149Z,24.39
2016-08-09T12:45:56.157Z,24.45
2016-08-09T12:46:56.159Z,24.44
2016-08-09T12:47:56.480Z,24.42
2016-08-09T12:48:56.217Z,24.46
2016-08-09T12:49:56.178Z,24.4
2016-08-09T12:50:56.185Z,24.46
2016-08-09T12:51:56.191Z,24.44
2016-08-09T12:52:56.201Z,24.36
2016-08-09T12:53:56.203Z,24.48
2016-08-09T12:54:56.211Z,24.49
2016-08-09T12:55:56.211Z,24.42
2016-08-09T12:56:56.215Z,24.44
2016-08-09T12:57:56.223Z,24.44
2016-08-09T12:58:56.240Z,24.46
2016-08-09T12:59:56.308Z,24.44
2016-08-09T13:00:56.262Z,24.46
2016-08-09T13:01:56.247Z,24.4
2016-08-09T13:02:56.357Z,24.45
2016-08-09T13:03:56.258Z,24.42
2016-08-09T13:04:56.279Z,24.46
2016-08-09T13:05:56.268Z,24.44
2016-08-09T13:06:56.274Z,24.45
2016-08-09T13:07:56.282Z,24.46